Parish, New York
Current Conditions -  °F | °C
As of 3:54 PM on Friday 28 Nov 2014 (Local Time) from KFZY Reporting Station
Light Snow Light Snow  
Wind Chill: 16°   Ceiling: 3800
Heat Index: 25°   Visibility: 9mi
Dew Point: 17°   Wind: 9mph
Humidity: 72%   Direction: 240°WSW
Pressure: 30.2"   Gusts: NA
Location:  43.41°N, 76.13°W
Report Text: KFZY 282054Z AUTO 24008KT 9SM -SN FEW031 BKN038 OVC046 M04/M08 A3020 RMK AO2 SLP233 P0000 60000 T10391083 53004
Loading
Personal Weather Stations






























Interactive Weather Map New forecast layout! Learn more

10-Day Weather Forecast

Advertisements
Track Severe Weather on mobile